Time;durP1;ratioP1;P1;durP2;ratioP2;P2;SDS_P1;SDS_P2;PMS_P1;PMS_P2;Temp;Humidity;BMP_temperature;BMP_pressure;BME280_temperature;BME280_humidity;BME280_pressure;Samples;Min_cycle;Max_cycle;Signal;HPM_P1;HPM_P2
2022/05/01 00:00:10;;;;;;;9.38;6.70;;;8.70;99.90;;;;;;5094270;28;20012;-37
2022/05/01 00:02:35;;;;;;;12.25;7.22;;;8.70;99.90;;;;;;5094146;28;20041;-37
2022/05/01 00:05:01;;;;;;;18.60;8.98;;;8.60;99.90;;;;;;5094225;28;20052;-36
2022/05/01 00:07:27;;;;;;;20.42;8.60;;;8.50;99.90;;;;;;5094427;28;20012;-37
2022/05/01 00:09:53;;;;;;;13.20;7.13;;;8.50;99.90;;;;;;5094011;28;20024;-36
2022/05/01 00:12:19;;;;;;;17.20;8.63;;;8.40;99.90;;;;;;5094001;28;20027;-38
2022/05/01 00:14:44;;;;;;;14.13;7.60;;;8.30;99.90;;;;;;5093950;28;20020;-30
2022/05/01 00:17:10;;;;;;;14.20;7.40;;;8.20;99.90;;;;;;5094139;28;20039;-29
2022/05/01 00:19:35;;;;;;;14.35;7.25;;;8.20;99.90;;;;;;5093876;28;20069;-45
2022/05/01 00:22:01;;;;;;;19.40;7.60;;;8.10;99.90;;;;;;5093839;28;20522;-35
2022/05/01 00:24:27;;;;;;;14.90;7.15;;;8.10;99.90;;;;;;5093759;28;20026;-36
2022/05/01 00:26:53;;;;;;;13.90;7.97;;;8.10;99.90;;;;;;5094011;28;20099;-28
2022/05/01 00:29:18;;;;;;;17.00;7.82;;;8.10;99.90;;;;;;5093991;28;20076;-46
2022/05/01 00:31:44;;;;;;;12.35;7.00;;;8.20;99.90;;;;;;5093675;28;20056;-35
2022/05/01 00:36:54;;;;;;;15.48;8.77;;;8.10;99.90;;;;;;5093538;28;20517;-36
2022/05/01 00:39:19;;;;;;;15.07;7.93;;;8.00;99.90;;;;;;5093611;28;20095;-35
2022/05/01 00:41:46;;;;;;;11.18;7.55;;;8.00;99.90;;;;;;5093323;28;20564;-35
2022/05/01 00:44:21;;;;;;;12.88;8.07;;;8.00;99.90;;;;;;5093457;28;20024;-35
2022/05/01 00:46:49;;;;;;;12.48;7.50;;;7.90;99.90;;;;;;5093436;28;20023;-35
2022/05/01 00:49:20;;;;;;;13.10;7.68;;;7.90;99.90;;;;;;5093692;28;20017;-36
2022/05/01 00:52:09;;;;;;;16.13;7.53;;;8.00;99.90;;;;;;5093393;28;20020;-36
2022/05/01 00:54:37;;;;;;;13.15;7.00;;;8.00;99.90;;;;;;5093373;28;20045;-31
2022/05/01 00:57:05;;;;;;;11.10;6.78;;;8.00;99.90;;;;;;5093267;28;20036;-29
2022/05/01 00:59:35;;;;;;;13.10;7.60;;;8.00;99.90;;;;;;5093318;28;20473;-30
2022/05/01 01:02:01;;;;;;;12.55;7.00;;;7.90;99.90;;;;;;5093133;28;20091;-29
2022/05/01 01:04:26;;;;;;;14.82;7.20;;;7.80;99.90;;;;;;5091863;28;20158;-31
2022/05/01 01:06:52;;;;;;;10.25;6.88;;;7.80;99.90;;;;;;5093348;28;20027;-43
2022/05/01 01:09:19;;;;;;;21.77;7.63;;;7.80;99.90;;;;;;5093172;28;20056;-34
2022/05/01 01:11:44;;;;;;;15.32;7.35;;;7.70;99.90;;;;;;5093143;28;20502;-30
2022/05/01 01:14:11;;;;;;;14.30;7.65;;;7.70;99.90;;;;;;5093254;28;20024;-29
2022/05/01 01:16:38;;;;;;;18.70;8.30;;;7.70;99.90;;;;;;5093017;28;20081;-28
2022/05/01 01:19:06;;;;;;;17.60;8.40;;;7.70;99.90;;;;;;5093058;28;20028;-32
2022/05/01 01:21:31;;;;;;;12.40;8.02;;;7.70;99.90;;;;;;5093113;28;20020;-31
2022/05/01 01:23:58;;;;;;;13.02;7.65;;;7.70;99.90;;;;;;5093038;28;20051;-29
2022/05/01 01:26:24;;;;;;;15.73;8.15;;;7.60;99.90;;;;;;5093060;28;20028;-47
2022/05/01 01:28:50;;;;;;;14.88;7.97;;;7.60;99.90;;;;;;5092995;28;20099;-36
2022/05/01 01:34:05;;;;;;;15.90;9.18;;;7.50;99.90;;;;;;5093136;28;20035;-37
2022/05/01 01:36:35;;;;;;;20.92;8.00;;;7.50;99.90;;;;;;5093168;28;20518;-36
2022/05/01 01:39:01;;;;;;;14.38;8.52;;;7.40;99.90;;;;;;5093196;28;20404;-30
2022/05/01 01:41:29;;;;;;;17.90;8.82;;;7.40;99.90;;;;;;5092736;28;20039;-28
2022/05/01 01:43:56;;;;;;;18.65;10.18;;;7.40;99.90;;;;;;5093153;28;20012;-30
2022/05/01 01:46:22;;;;;;;19.10;9.77;;;7.40;99.90;;;;;;5092858;28;20027;-30
2022/05/01 01:48:48;;;;;;;18.60;9.43;;;7.40;99.90;;;;;;5093099;28;20032;-29
2022/05/01 01:51:14;;;;;;;17.05;9.32;;;7.30;99.90;;;;;;5092801;28;20024;-29
2022/05/01 01:53:41;;;;;;;20.17;10.90;;;7.30;99.90;;;;;;5093032;28;20434;-30
2022/05/01 01:56:10;;;;;;;18.90;9.32;;;7.20;99.90;;;;;;5092666;28;20111;-30
2022/05/01 01:58:37;;;;;;;20.17;9.02;;;7.20;99.90;;;;;;5092672;28;20021;-31
2022/05/01 02:01:06;;;;;;;17.50;9.43;;;7.20;99.90;;;;;;5092704;28;20024;-28
2022/05/01 02:03:31;;;;;;;;;;;7.10;99.90;;;;;;5093344;28;20021;-29
2022/05/01 02:05:57;;;;;;;20.58;9.60;;;7.10;99.90;;;;;;5092955;28;20344;-29
2022/05/01 02:08:23;;;;;;;18.63;8.68;;;7.10;99.90;;;;;;5092624;28;20041;-49
2022/05/01 02:10:48;;;;;;;18.45;9.48;;;7.00;99.90;;;;;;5092510;28;20533;-36
2022/05/01 02:13:15;;;;;;;20.70;10.43;;;6.90;99.90;;;;;;5091363;28;20115;-37
2022/05/01 02:15:41;;;;;;;18.42;10.65;;;6.90;99.90;;;;;;5092530;28;20020;-36
2022/05/01 02:18:07;;;;;;;20.88;10.38;;;6.90;99.90;;;;;;5093115;28;20046;-36
2022/05/01 02:23:20;;;;;;;20.70;10.50;;;6.80;99.90;;;;;;5096379;28;20114;-35
2022/05/01 02:25:46;;;;;;;22.92;10.60;;;6.80;99.90;;;;;;5096143;28;20498;-30
2022/05/01 02:28:12;;;;;;;18.33;9.60;;;6.80;99.90;;;;;;5096311;28;20494;-28
2022/05/01 02:30:39;;;;;;;20.35;10.00;;;6.70;99.90;;;;;;5095898;28;20115;-29
2022/05/01 02:33:06;;;;;;;20.30;10.80;;;6.70;99.90;;;;;;5095956;28;20111;-31
2022/05/01 02:35:32;;;;;;;19.98;10.73;;;6.70;99.90;;;;;;5095801;28;20376;-33
2022/05/01 02:37:59;;;;;;;18.00;9.75;;;6.70;99.90;;;;;;5095846;28;20026;-30
2022/05/01 02:40:25;;;;;;;20.15;10.90;;;6.70;99.90;;;;;;5095827;28;20032;-29
2022/05/01 02:42:51;;;;;;;23.90;10.38;;;6.60;99.90;;;;;;5095728;28;20023;-47
2022/05/01 02:45:17;;;;;;;16.17;10.43;;;6.60;99.90;;;;;;5095981;28;20046;-35
2022/05/01 02:47:43;;;;;;;22.73;10.32;;;6.60;99.90;;;;;;5095676;28;20028;-39
2022/05/01 02:50:09;;;;;;;21.75;11.32;;;6.60;99.90;;;;;;5095680;28;20013;-36
2022/05/01 02:52:34;;;;;;;19.42;10.82;;;6.60;99.90;;;;;;5095587;28;20095;-30
2022/05/01 02:55:00;;;;;;;21.27;9.63;;;6.60;99.90;;;;;;5095415;28;20384;-31
2022/05/01 02:57:25;;;;;;;21.55;10.85;;;6.50;99.90;;;;;;5095487;28;20030;-49
2022/05/01 02:59:51;;;;;;;19.65;10.18;;;6.50;99.90;;;;;;5095419;28;20024;-39
2022/05/01 03:02:17;;;;;;;21.70;10.63;;;6.50;99.90;;;;;;5095604;28;20464;-36
2022/05/01 03:04:43;;;;;;;20.00;10.70;;;6.40;99.90;;;;;;5095404;28;20080;-28
2022/05/01 03:07:09;;;;;;;21.90;10.20;;;6.40;99.90;;;;;;5093923;28;20036;-29
2022/05/01 03:09:34;;;;;;;25.17;11.13;;;6.40;99.90;;;;;;5095215;28;20457;-28
2022/05/01 03:12:03;;;;;;;23.55;10.65;;;6.40;99.90;;;;;;5095457;28;20028;-28
2022/05/01 03:14:28;;;;;;;24.48;11.15;;;6.30;99.90;;;;;;5095402;28;20417;-29
2022/05/01 03:16:54;;;;;;;22.55;10.60;;;6.30;99.90;;;;;;5095053;28;20105;-29
2022/05/01 03:22:15;;;;;;;18.02;10.20;;;6.20;99.90;;;;;;5094223;28;20058;-28
2022/05/01 03:24:42;;;;;;;18.05;9.90;;;6.20;99.90;;;;;;5095282;28;20464;-29
2022/05/01 03:27:09;;;;;;;20.80;9.35;;;6.20;99.90;;;;;;5094890;28;20024;-30
2022/05/01 03:29:38;;;;;;;17.23;7.82;;;6.30;99.90;;;;;;5093848;28;20031;-46
2022/05/01 03:32:07;;;;;;;24.75;10.57;;;6.30;99.90;;;;;;5094705;28;20051;-28
2022/05/01 03:34:37;;;;;;;18.73;10.35;;;6.30;99.90;;;;;;5094852;28;20032;-28
2022/05/01 03:37:09;;;;;;;28.42;11.93;;;6.30;99.90;;;;;;5094876;28;20480;-28
2022/05/01 03:39:35;;;;;;;17.67;9.93;;;6.20;99.90;;;;;;5094940;28;20126;-29
2022/05/01 03:42:02;;;;;;;20.77;9.95;;;6.20;99.90;;;;;;5094209;28;20118;-36
2022/05/01 03:44:28;;;;;;;18.83;10.32;;;6.20;99.90;;;;;;5094886;28;20020;-40
2022/05/01 03:46:53;;;;;;;20.20;10.27;;;6.20;99.90;;;;;;5094757;28;20102;-36
2022/05/01 03:49:19;;;;;;;21.23;11.50;;;6.20;99.90;;;;;;5094498;28;20024;-35
2022/05/01 03:51:46;;;;;;;16.88;9.45;;;6.20;99.90;;;;;;5093157;28;20465;-36
2022/05/01 03:54:12;;;;;;;23.13;11.52;;;6.10;99.90;;;;;;5094665;28;20391;-36
2022/05/01 03:56:37;;;;;;;20.85;10.48;;;6.10;99.90;;;;;;5094308;28;20036;-40
2022/05/01 03:59:04;;;;;;;18.45;10.57;;;6.10;99.90;;;;;;5094308;28;20036;-37
2022/05/01 04:01:31;;;;;;;22.98;10.52;;;6.20;99.90;;;;;;5094172;28;20031;-35
2022/05/01 04:03:57;;;;;;;23.30;12.23;;;6.20;99.90;;;;;;5094242;28;20024;-36
2022/05/01 04:06:23;;;;;;;20.13;9.98;;;6.10;99.90;;;;;;5094415;28;20504;-36
2022/05/01 04:08:49;;;;;;;18.48;9.90;;;6.10;99.90;;;;;;5094199;28;20024;-39
2022/05/01 04:11:15;;;;;;;19.05;10.35;;;6.10;99.90;;;;;;5092726;28;20068;-28
2022/05/01 04:13:40;;;;;;;22.02;10.13;;;6.00;99.90;;;;;;5093991;28;20031;-28
2022/05/01 04:16:06;;;;;;;17.35;9.68;;;6.10;99.90;;;;;;5093849;28;20046;-28
2022/05/01 04:18:31;;;;;;;21.60;10.88;;;6.10;99.90;;;;;;5093967;28;20062;-28
2022/05/01 04:21:00;;;;;;;23.52;9.90;;;6.20;99.90;;;;;;5093881;28;20432;-35
2022/05/01 04:23:26;;;;;;;15.98;10.07;;;6.20;99.90;;;;;;5094097;28;20491;-36
2022/05/01 04:25:52;;;;;;;18.92;9.38;;;6.20;99.90;;;;;;5093761;28;20020;-37
2022/05/01 04:28:18;;;;;;;23.70;10.27;;;6.20;99.90;;;;;;5094007;28;20024;-27
2022/05/01 04:30:45;;;;;;;19.65;9.85;;;6.20;99.90;;;;;;5093706;28;20028;-47
2022/05/01 04:33:14;;;;;;;19.38;11.10;;;6.20;99.90;;;;;;5093917;28;20110;-27
2022/05/01 04:35:42;;;;;;;;;;;6.10;99.90;;;;;;5092527;28;20496;-28
2022/05/01 04:38:09;;;;;;;18.42;8.25;;;6.10;99.90;;;;;;5092360;28;19908;-36
2022/05/01 04:40:42;;;;;;;20.50;10.48;;;6.20;99.90;;;;;;5091939;28;20036;-43
2022/05/01 04:43:13;;;;;;;25.30;10.15;;;6.20;99.90;;;;;;5093478;28;20024;-35
2022/05/01 04:45:41;;;;;;;18.40;9.38;;;6.30;99.90;;;;;;5093771;28;20395;-35
2022/05/01 04:48:07;;;;;;;25.60;10.15;;;6.30;99.90;;;;;;5093482;28;20116;-36
2022/05/01 04:50:34;;;;;;;22.25;12.10;;;6.30;99.90;;;;;;5093337;28;20084;-35
2022/05/01 04:53:01;;;;;;;24.65;10.35;;;6.30;99.90;;;;;;5093645;28;20522;-36
2022/05/01 04:55:27;;;;;;;19.02;10.70;;;6.30;99.90;;;;;;5093319;28;20499;-36
2022/05/01 04:57:53;;;;;;;17.65;9.60;;;6.30;99.90;;;;;;5093318;28;20476;-35
2022/05/01 05:00:19;;;;;;;19.90;10.70;;;6.40;99.90;;;;;;5093340;28;20122;-35
2022/05/01 05:02:47;;;;;;;15.20;9.55;;;6.40;99.90;;;;;;5093532;28;20476;-36
2022/05/01 05:05:13;;;;;;;20.85;10.45;;;6.50;99.90;;;;;;5093236;28;20081;-35
2022/05/01 05:07:39;;;;;;;22.42;10.13;;;6.60;99.90;;;;;;5091902;28;20024;-36
2022/05/01 05:10:09;;;;;;;19.67;10.50;;;6.70;99.90;;;;;;5093172;28;20019;-37
2022/05/01 05:12:36;;;;;;;17.75;10.60;;;6.80;99.90;;;;;;5093144;28;20016;-36
2022/05/01 05:15:08;;;;;;;14.02;8.73;;;6.80;99.90;;;;;;5093145;28;20496;-44
2022/05/01 05:17:34;;;;;;;14.98;9.13;;;6.90;99.90;;;;;;5093326;28;20024;-38
2022/05/01 05:20:01;;;;;;;18.98;9.23;;;7.00;99.90;;;;;;5093100;28;20099;-28
2022/05/01 05:22:27;;;;;;;18.50;10.27;;;7.10;99.90;;;;;;5093123;28;20043;-32
2022/05/01 05:24:52;;;;;;;21.10;10.23;;;7.20;99.90;;;;;;5093324;28;20557;-29
2022/05/01 05:27:20;;;;;;;21.17;11.40;;;7.30;99.90;;;;;;5093068;28;20017;-46
2022/05/01 05:29:47;;;;;;;19.83;10.05;;;7.30;99.90;;;;;;5092997;28;20032;-36
2022/05/01 05:32:12;;;;;;;19.58;9.95;;;7.40;99.90;;;;;;5093060;28;20107;-37
2022/05/01 05:34:38;;;;;;;22.85;11.00;;;7.50;99.90;;;;;;5092959;28;20515;-36
2022/05/01 05:37:04;;;;;;;20.20;9.88;;;7.60;99.90;;;;;;5092939;28;20398;-37
2022/05/01 05:39:30;;;;;;;18.73;9.60;;;7.70;99.90;;;;;;5092880;28;20099;-37
2022/05/01 05:41:55;;;;;;;19.60;10.13;;;7.90;99.90;;;;;;5092645;28;20048;-36
2022/05/01 05:44:21;;;;;;;16.00;9.75;;;8.10;99.90;;;;;;5092888;28;20050;-36
2022/05/01 05:46:46;;;;;;;15.35;9.50;;;8.20;99.90;;;;;;5092904;28;20027;-37
2022/05/01 05:49:12;;;;;;;19.05;9.60;;;8.40;99.90;;;;;;5092904;28;20031;-36
2022/05/01 05:51:38;;;;;;;16.70;9.02;;;8.60;99.90;;;;;;5092853;28;20490;-36
2022/05/01 05:54:03;;;;;;;21.17;8.68;;;8.70;99.90;;;;;;5095264;28;20020;-36
2022/05/01 05:56:29;;;;;;;18.88;9.18;;;8.90;99.90;;;;;;5096593;28;20488;-27
2022/05/01 05:58:56;;;;;;;19.42;9.35;;;8.90;99.90;;;;;;5096993;28;20008;-28
2022/05/01 06:01:22;;;;;;;19.52;8.90;;;9.00;99.90;;;;;;5096518;28;20096;-32
2022/05/01 06:03:49;;;;;;;13.55;8.13;;;9.10;99.90;;;;;;5096521;28;20478;-29
2022/05/01 06:06:15;;;;;;;12.18;7.95;;;9.10;99.90;;;;;;5096498;28;20024;-30
2022/05/01 06:08:41;;;;;;;12.77;7.90;;;9.30;99.90;;;;;;5096683;28;20028;-30
2022/05/01 06:11:07;;;;;;;15.13;8.98;;;9.40;99.90;;;;;;5096369;28;20050;-30
2022/05/01 06:13:33;;;;;;;11.60;7.53;;;9.50;99.90;;;;;;5096335;28;20032;-29
2022/05/01 06:15:59;;;;;;;13.55;8.05;;;9.60;99.90;;;;;;5096256;28;20030;-33
2022/05/01 06:18:24;;;;;;;11.15;7.32;;;9.70;99.90;;;;;;5096259;28;20091;-31
2022/05/01 06:20:50;;;;;;;14.60;8.85;;;9.80;99.90;;;;;;5096204;28;20050;-30
2022/05/01 06:23:16;;;;;;;15.32;7.85;;;9.70;99.90;;;;;;5096389;28;20095;-29
2022/05/01 06:25:46;;;;;;;15.63;8.20;;;9.80;99.90;;;;;;5096118;28;20441;-39
2022/05/01 06:28:16;;;;;;;12.75;7.88;;;9.80;99.90;;;;;;5078541;28;20141;-42
2022/05/01 06:30:43;;;;;;;16.88;8.88;;;9.80;99.90;;;;;;5096000;28;20503;-36
2022/05/01 06:33:11;;;;;;;12.37;7.47;;;9.90;99.90;;;;;;5094725;28;20060;-36
2022/05/01 06:35:38;;;;;;;17.67;8.30;;;10.00;99.90;;;;;;5095828;28;20472;-36
2022/05/01 06:38:03;;;;;;;13.85;7.32;;;10.20;99.90;;;;;;5096179;28;20099;-30
2022/05/01 06:40:29;;;;;;;14.02;8.30;;;10.20;99.90;;;;;;5095577;28;20146;-30
2022/05/01 06:42:55;;;;;;;15.80;7.40;;;10.30;99.90;;;;;;5095816;28;20498;-36
2022/05/01 06:45:20;;;;;;;14.68;7.15;;;10.40;99.90;;;;;;5095756;28;20030;-30
2022/05/01 06:47:46;;;;;;;11.73;7.22;;;10.60;99.90;;;;;;5095651;28;20488;-29
2022/05/01 06:50:12;;;;;;;15.88;8.15;;;10.70;99.90;;;;;;5095650;28;20031;-47
2022/05/01 06:52:37;;;;;;;12.50;6.88;;;10.70;99.90;;;;;;5095617;28;20052;-36
2022/05/01 06:55:04;;;;;;;14.30;7.53;;;10.80;99.90;;;;;;5095494;28;20434;-36
2022/05/01 06:57:29;;;;;;;14.30;7.32;;;10.80;99.90;;;;;;5095472;28;20415;-36
2022/05/01 06:59:55;;;;;;;12.30;7.57;;;10.70;99.90;;;;;;5095449;28;20099;-42
2022/05/01 07:02:21;;;;;;;14.05;7.30;;;10.70;99.90;;;;;;5095425;28;20020;-36
2022/05/01 07:04:47;;;;;;;11.43;7.00;;;10.70;99.90;;;;;;5093872;28;20073;-45
2022/05/01 07:07:13;;;;;;;14.43;8.00;;;10.80;99.90;;;;;;5095306;28;20028;-37
2022/05/01 07:09:38;;;;;;;12.27;7.25;;;10.90;99.90;;;;;;5095534;28;20043;-36
2022/05/01 07:12:05;;;;;;;15.63;6.88;;;10.90;99.90;;;;;;5093939;28;20024;-29
2022/05/01 07:14:30;;;;;;;12.60;7.25;;;11.00;99.90;;;;;;5095365;28;20050;-36
2022/05/01 07:16:56;;;;;;;13.32;6.90;;;11.20;99.90;;;;;;5095019;28;20020;-37
2022/05/01 07:19:22;;;;;;;12.57;7.10;;;11.40;99.90;;;;;;5095035;28;20028;-37
2022/05/01 07:21:47;;;;;;;9.95;6.47;;;11.30;99.90;;;;;;5094981;28;20024;-56
2022/05/01 07:24:13;;;;;;;16.80;6.70;;;11.50;99.90;;;;;;5094975;28;20107;-37
2022/05/01 07:26:38;;;;;;;14.80;6.03;;;11.60;99.90;;;;;;5094878;28;20093;-42
2022/05/01 07:29:04;;;;;;;10.35;6.65;;;11.60;99.90;;;;;;5094923;28;20024;-37
2022/05/01 07:31:31;;;;;;;11.70;6.38;;;11.70;99.90;;;;;;5095142;28;20376;-36
2022/05/01 07:33:56;;;;;;;7.72;5.72;;;11.80;99.90;;;;;;5094802;28;20020;-38
2022/05/01 07:36:25;;;;;;;10.30;6.45;;;11.90;99.90;;;;;;5093416;28;20034;-29
2022/05/01 07:38:51;;;;;;;8.73;6.18;;;11.90;99.90;;;;;;5094667;28;20019;-29
2022/05/01 07:41:17;;;;;;;9.50;5.60;;;12.00;99.90;;;;;;5094452;28;20428;-32
2022/05/01 07:43:44;;;;;;;9.00;6.25;;;12.30;99.90;;;;;;5094581;28;20376;-31
2022/05/01 07:46:10;;;;;;;7.65;5.43;;;12.40;99.90;;;;;;5094564;28;20056;-29
2022/05/01 07:48:35;;;;;;;13.05;5.00;;;12.50;99.90;;;;;;5093250;28;20059;-31
2022/05/01 07:51:01;;;;;;;10.13;5.18;;;12.50;99.90;;;;;;5093176;28;20075;-29
2022/05/01 07:53:27;;;;;;;10.82;5.80;;;12.60;99.90;;;;;;5094466;28;20112;-29
2022/05/01 07:55:52;;;;;;;11.63;6.18;;;12.40;99.90;;;;;;5094264;28;20032;-34
2022/05/01 07:58:20;;;;;;;11.65;5.57;;;12.20;99.90;;;;;;5094308;28;20016;-37
2022/05/01 08:00:46;;;;;;;;;;;12.20;99.90;;;;;;5094605;28;20072;-35
2022/05/01 08:05:56;;;;;;;13.63;6.10;;;12.00;99.90;;;;;;5094417;28;20031;-41
2022/05/01 08:08:22;;;;;;;8.50;5.57;;;12.20;99.90;;;;;;5094328;28;20322;-54
2022/05/01 08:10:47;;;;;;;8.85;5.85;;;12.30;99.90;;;;;;5094341;28;20502;-29
2022/05/01 08:13:13;;;;;;;10.65;5.05;;;12.30;99.90;;;;;;5094048;28;20031;-32
2022/05/01 08:15:38;;;;;;;10.82;6.15;;;12.30;99.90;;;;;;5093551;28;20472;-37
2022/05/01 08:23:32;;;;;;;9.30;5.38;;;12.70;99.90;;;;;;5094173;28;20089;-36
2022/05/01 08:26:04;;;;;;;10.25;5.35;;;12.70;99.90;;;;;;5093845;28;20028;-38
2022/05/01 08:28:31;;;;;;;9.35;5.15;;;12.70;99.90;;;;;;5093766;28;20111;-36
2022/05/01 08:30:57;;;;;;;10.65;5.57;;;12.80;99.90;;;;;;5094010;28;20023;-36
2022/05/01 08:33:22;;;;;;;8.07;5.50;;;12.80;99.90;;;;;;5093667;28;20038;-37
2022/05/01 08:35:48;;;;;;;11.68;5.05;;;13.00;99.90;;;;;;5093421;28;20050;-37
2022/05/01 08:38:13;;;;;;;10.25;5.40;;;13.10;99.90;;;;;;5093495;28;20031;-39
2022/05/01 08:40:40;;;;;;;9.45;4.93;;;13.10;99.90;;;;;;5093284;28;20503;-38
2022/05/01 08:43:06;;;;;;;9.38;4.97;;;13.40;99.90;;;;;;5093510;28;20020;-36
2022/05/01 08:46:18;;;;;;;8.77;5.15;;;13.50;99.90;;;;;;5093465;28;20020;-36
2022/05/01 08:48:52;;;;;;;8.48;4.93;;;13.70;99.90;;;;;;5062249;28;20032;-38
2022/05/01 08:51:20;;;;;;;7.47;5.53;;;13.90;99.90;;;;;;5093414;28;20020;-41
2022/05/01 08:53:47;;;;;;;5.45;3.85;;;13.90;99.90;;;;;;5092028;28;20129;-37
2022/05/01 08:56:13;;;;;;;7.60;4.10;;;13.90;99.90;;;;;;5093291;28;20499;-40
2022/05/01 08:58:43;;;;;;;7.47;3.87;;;13.70;99.90;;;;;;5093320;28;20480;-36
2022/05/01 09:01:09;;;;;;;8.82;3.85;;;13.60;99.90;;;;;;5093338;28;20020;-37
2022/05/01 09:03:40;;;;;;;7.38;3.63;;;13.70;99.90;;;;;;5093163;28;20030;-37
2022/05/01 09:06:06;;;;;;;8.43;3.97;;;13.70;99.90;;;;;;5093463;28;20488;-40
2022/05/01 09:08:32;;;;;;;8.25;3.70;;;14.10;99.90;;;;;;5093249;28;20152;-37
2022/05/01 09:12:49;;;;;;;5.93;4.07;;;14.40;99.90;;;;;;5093234;28;20071;-36
2022/05/01 09:13:44;;;;;;;8.52;3.85;;;14.80;99.90;;;;;;5093159;28;20395;-36
2022/05/01 09:16:11;;;;;;;4.30;3.90;;;15.50;99.90;;;;;;5092990;28;20023;-38
2022/05/01 09:18:44;;;;;;;4.18;3.00;;;16.50;99.60;;;;;;5091912;28;20031;-37
2022/05/01 09:21:10;;;;;;;6.30;4.18;;;16.60;99.50;;;;;;5091810;28;20020;-32
2022/05/01 09:23:40;;;;;;;5.68;3.67;;;16.50;99.90;;;;;;5093317;28;20027;-30
2022/05/01 09:26:09;;;;;;;5.05;4.05;;;16.80;99.90;;;;;;5093275;28;20020;-29
2022/05/01 09:28:36;;;;;;;6.35;2.92;;;17.10;99.10;;;;;;5096593;28;20023;-32
2022/05/01 09:31:02;;;;;;;3.65;2.97;;;17.10;98.10;;;;;;5097219;28;20079;-55
2022/05/01 09:33:27;;;;;;;3.55;2.65;;;16.80;97.70;;;;;;5097159;28;20525;-40
2022/05/01 09:35:53;;;;;;;4.63;2.38;;;17.10;96.60;;;;;;5096913;28;20024;-39
2022/05/01 09:38:23;;;;;;;3.85;2.80;;;17.30;95.80;;;;;;5097035;28;20563;-29
2022/05/01 09:41:03;;;;;;;4.35;2.75;;;17.30;96.10;;;;;;5096794;28;20110;-30
2022/05/01 09:43:42;;;;;;;5.63;2.50;;;17.40;95.40;;;;;;5097036;28;20103;-37
2022/05/01 09:46:24;;;;;;;2.47;2.28;;;17.50;95.60;;;;;;5096970;28;20027;-37
2022/05/01 09:49:13;;;;;;;5.47;2.85;;;17.70;94.80;;;;;;5096872;28;20078;-37
2022/05/01 09:51:46;;;;;;;3.05;2.60;;;17.80;95.50;;;;;;5096706;28;20016;-37
2022/05/01 09:54:27;;;;;;;3.45;2.85;;;18.10;95.30;;;;;;5096798;28;20023;-36
2022/05/01 09:57:00;;;;;;;2.05;1.95;;;18.30;95.20;;;;;;5096877;28;20084;-51
2022/05/01 09:59:27;;;;;;;5.57;3.17;;;18.40;94.70;;;;;;5096491;28;20024;-48
2022/05/01 10:02:06;;;;;;;6.25;3.17;;;18.00;94.70;;;;;;5096375;28;20030;-37
2022/05/01 10:04:34;;;;;;;4.47;3.00;;;17.70;95.20;;;;;;5096745;28;20074;-36
2022/05/01 10:07:01;;;;;;;11.65;3.00;;;17.10;95.20;;;;;;5096491;28;20028;-36
2022/05/01 10:09:28;;;;;;;5.47;2.90;;;16.70;96.00;;;;;;5095240;28;20035;-37
2022/05/01 10:11:55;;;;;;;4.55;2.80;;;16.50;95.80;;;;;;5096388;28;20032;-37
2022/05/01 10:14:21;;;;;;;;;;;16.60;95.20;;;;;;5096986;28;20365;-44
2022/05/01 10:16:47;;;;;;;4.60;2.67;;;17.10;94.40;;;;;;5096239;28;19908;-29
2022/05/01 10:19:18;;;;;;;2.50;2.30;;;17.20;95.00;;;;;;5096070;28;20167;-29
2022/05/01 10:21:49;;;;;;;2.65;2.35;;;17.20;94.40;;;;;;5096139;28;20376;-29
2022/05/01 10:24:15;;;;;;;4.82;3.00;;;17.40;94.50;;;;;;5096134;28;20032;-32
2022/05/01 10:26:58;;;;;;;4.68;2.72;;;17.50;94.30;;;;;;5096358;28;20081;-33
2022/05/01 10:32:41;;;;;;;4.95;2.83;;;17.60;93.40;;;;;;5096312;28;20066;-36
2022/05/01 10:35:38;;;;;;;5.20;2.90;;;17.40;93.70;;;;;;5095638;28;20062;-29
2022/05/01 10:38:23;;;;;;;2.88;2.67;;;17.00;94.70;;;;;;5082135;28;20052;-29
2022/05/01 10:40:55;;;;;;;5.60;2.78;;;16.70;94.70;;;;;;5094110;28;20032;-41
2022/05/01 10:43:28;;;;;;;4.47;3.42;;;15.80;95.40;;;;;;5095986;28;20024;-29
2022/05/01 10:45:56;;;;;;;2.83;2.50;;;15.50;95.90;;;;;;5095963;28;20488;-30
2022/05/01 10:48:32;;;;;;;;;;;15.20;95.80;;;;;;5096341;28;20042;-30
2022/05/01 10:51:38;;;;;;;3.05;2.75;;;15.10;96.00;;;;;;5095678;28;20287;-28
2022/05/01 10:54:10;;;;;;;3.83;3.45;;;15.00;96.80;;;;;;5095333;28;20495;-29
2022/05/01 10:56:37;;;;;;;9.95;4.05;;;14.80;98.40;;;;;;5095331;28;20028;-29
2022/05/01 10:59:31;;;;;;;6.72;3.60;;;14.60;98.80;;;;;;5095282;28;20107;-29
2022/05/01 11:01:58;;;;;;;6.10;3.75;;;14.50;99.60;;;;;;5095113;28;20031;-29
2022/05/01 11:04:26;;;;;;;6.05;4.43;;;14.50;99.90;;;;;;5095611;28;20484;-29
2022/05/01 11:06:55;;;;;;;6.18;3.85;;;14.50;99.90;;;;;;5095643;28;20056;-29
2022/05/01 11:09:25;;;;;;;4.80;2.80;;;14.60;99.80;;;;;;5095238;28;20480;-33
2022/05/01 11:11:58;;;;;;;5.57;3.78;;;14.80;98.00;;;;;;5095027;28;20057;-45
2022/05/01 11:14:32;;;;;;;4.60;2.83;;;14.70;97.80;;;;;;5095364;28;20054;-35
2022/05/01 11:16:58;;;;;;;5.15;3.67;;;14.50;98.10;;;;;;5094991;28;20063;-29
2022/05/01 11:19:24;;;;;;;7.22;3.53;;;14.40;98.40;;;;;;5094983;28;20024;-34
2022/05/01 11:21:50;;;;;;;6.40;3.58;;;14.50;98.10;;;;;;5094928;28;20070;-32
2022/05/01 11:24:35;;;;;;;5.00;3.20;;;14.60;98.50;;;;;;5095006;28;20022;-29
2022/05/01 11:27:10;;;;;;;7.53;3.55;;;14.90;98.40;;;;;;5093610;28;20119;-29
2022/05/01 11:29:36;;;;;;;5.78;3.05;;;15.20;97.80;;;;;;5094931;28;20034;-29
2022/05/01 11:32:20;;;;;;;5.65;3.63;;;15.30;97.00;;;;;;5094878;28;20459;-48
2022/05/01 11:34:50;;;;;;;4.93;3.22;;;15.30;96.50;;;;;;5094913;28;20024;-36
2022/05/01 11:37:17;;;;;;;4.97;3.15;;;15.60;96.80;;;;;;5093767;28;20100;-36
2022/05/01 11:39:45;;;;;;;3.88;3.35;;;15.90;96.50;;;;;;5094691;28;20071;-37
2022/05/01 11:42:26;;;;;;;3.85;3.00;;;16.10;96.10;;;;;;5094334;28;20051;-37
2022/05/01 11:44:54;;;;;;;5.28;3.30;;;16.10;96.20;;;;;;5094859;28;20426;-36
2022/05/01 11:47:24;;;;;;;6.82;3.78;;;16.10;96.70;;;;;;5094749;28;20038;-37
2022/05/01 11:49:53;;;;;;;5.18;3.65;;;16.20;96.60;;;;;;5094450;28;20123;-37
2022/05/01 11:52:19;;;;;;;4.70;3.72;;;16.40;96.70;;;;;;5093519;28;20028;-37
2022/05/01 11:54:56;;;;;;;5.28;4.30;;;16.60;97.20;;;;;;5094420;28;20020;-32
2022/05/01 12:03:05;;;;;;;4.85;3.60;;;15.80;97.50;;;;;;5094334;28;20067;-29
2022/05/01 12:05:31;;;;;;;6.72;3.60;;;15.80;98.10;;;;;;5094597;28;20017;-30
2022/05/01 12:07:59;;;;;;;7.80;3.80;;;15.80;97.90;;;;;;5094211;28;20028;-29
2022/05/01 12:10:26;;;;;;;6.57;3.83;;;16.10;97.30;;;;;;5092815;28;20024;-30
2022/05/01 12:13:14;;;;;;;5.43;3.60;;;16.50;97.60;;;;;;5070354;28;20387;-29
2022/05/01 12:15:39;;;;;;;5.18;3.75;;;17.10;96.40;;;;;;5070431;28;20025;-31
2022/05/01 12:18:07;;;;;;;4.53;3.40;;;17.40;94.90;;;;;;5070298;28;20031;-32
2022/05/01 12:20:36;;;;;;;4.45;3.80;;;17.30;95.10;;;;;;5070287;28;20032;-35
2022/05/01 12:23:01;;;;;;;8.55;3.75;;;17.40;94.70;;;;;;5070234;28;20028;-33
2022/05/01 12:25:27;;;;;;;9.85;3.92;;;17.70;95.00;;;;;;5070194;28;20078;-30
2022/05/01 12:27:53;;;;;;;5.97;3.45;;;17.80;94.60;;;;;;5070156;28;20031;-29
2022/05/01 12:30:26;;;;;;;6.72;3.97;;;18.10;93.80;;;;;;5070110;28;20064;-29
2022/05/01 12:32:53;;;;;;;5.25;3.83;;;18.20;93.80;;;;;;5070249;28;20032;-32
2022/05/01 12:35:19;;;;;;;13.13;3.70;;;18.00;94.20;;;;;;5070206;28;20485;-30
2022/05/01 12:37:48;;;;;;;4.65;3.70;;;17.90;94.10;;;;;;5069922;28;20056;-35
2022/05/01 12:43:50;;;;;;;8.88;3.60;;;17.80;94.20;;;;;;5069927;28;20063;-29
2022/05/01 12:45:53;;;;;;;6.03;3.40;;;17.80;94.30;;;;;;5070669;28;20083;-29
2022/05/01 12:48:19;;;;;;;9.60;3.45;;;17.80;93.80;;;;;;5069977;28;20020;-47
2022/05/01 12:50:53;;;;;;;8.60;3.95;;;17.50;94.80;;;;;;5069885;28;20033;-36
2022/05/01 12:53:27;;;;;;;6.22;3.70;;;17.00;96.10;;;;;;5069706;28;20044;-37
2022/05/01 12:55:53;;;;;;;10.27;3.75;;;16.60;95.80;;;;;;5069912;28;20041;-37
2022/05/01 12:58:29;;;;;;;4.32;3.90;;;16.50;95.80;;;;;;5069474;28;20059;-37
2022/05/01 13:00:56;;;;;;;9.02;4.00;;;16.30;96.30;;;;;;5069527;28;20040;-37
2022/05/01 13:03:25;;;;;;;6.38;4.85;;;16.40;96.10;;;;;;5069314;28;20057;-37
2022/05/01 13:05:58;;;;;;;5.00;3.78;;;16.30;95.70;;;;;;5069547;28;20143;-36
2022/05/01 13:08:24;;;;;;;5.85;3.38;;;16.30;95.70;;;;;;5069221;28;20392;-38
2022/05/01 13:11:13;;;;;;;5.18;3.80;;;16.40;95.70;;;;;;5069229;28;20063;-36
2022/05/01 13:13:45;;;;;;;7.82;4.53;;;16.60;95.20;;;;;;5069459;28;20044;-37
2022/05/01 13:16:11;;;;;;;4.90;3.90;;;16.60;95.60;;;;;;5069485;28;20060;-37
2022/05/01 13:18:37;;;;;;;4.28;3.30;;;16.70;95.90;;;;;;5069346;28;20464;-41
2022/05/01 13:21:03;;;;;;;6.28;3.83;;;16.50;96.40;;;;;;5068957;28;20037;-35